createdAt,value
2022-08-11T00:01:13.931Z,99763.44
2022-08-11T00:03:52.003Z,99766.13
2022-08-11T00:06:27.070Z,99765.78
2022-08-11T00:08:56.443Z,99760.81
2022-08-11T00:11:34.085Z,99760.75
2022-08-11T00:14:04.309Z,99761.19
2022-08-11T00:16:34.783Z,99763.28
2022-08-11T00:19:05.501Z,99765.16
2022-08-11T00:22:04.549Z,99769.69
2022-08-11T00:24:34.813Z,99768.06
2022-08-11T00:27:22.435Z,99768.91
2022-08-11T00:29:55.185Z,99761.03
2022-08-11T00:32:23.937Z,99763.13
2022-08-11T00:35:55.700Z,99759.41
2022-08-11T00:37:49.620Z,99760.19
2022-08-11T00:40:24.658Z,99757.94
2022-08-11T00:43:04.036Z,99767.91
2022-08-11T00:45:41.002Z,99763.53
2022-08-11T00:48:27.919Z,99760.84
2022-08-11T00:51:19.077Z,99767.28
2022-08-11T00:53:57.518Z,99773.16
2022-08-11T00:56:59.013Z,99772.94
2022-08-11T01:00:05.319Z,99760.97
2022-08-11T01:02:54.137Z,99768.84
2022-08-11T01:05:43.134Z,99766.59
2022-08-11T01:08:31.978Z,99769.50
2022-08-11T01:11:39.227Z,99765.97
2022-08-11T01:14:59.232Z,99769.91
2022-08-11T01:18:13.275Z,99769.09
2022-08-11T01:21:15.913Z,99766.19
2022-08-11T01:24:25.367Z,99772.00
2022-08-11T01:27:25.171Z,99768.72
2022-08-11T01:30:18.995Z,99768.09
2022-08-11T01:33:28.735Z,99761.44
2022-08-11T01:36:40.114Z,99762.91
2022-08-11T01:39:57.003Z,99762.91
2022-08-11T01:43:18.166Z,99767.84
2022-08-11T01:45:53.994Z,99764.13
2022-08-11T01:48:35.213Z,99752.13
2022-08-11T01:51:17.510Z,99753.34
2022-08-11T01:54:02.064Z,99757.09
2022-08-11T01:56:39.586Z,99747.56
2022-08-11T01:59:15.715Z,99751.50
2022-08-11T02:02:06.762Z,99757.50
2022-08-11T02:04:39.714Z,99755.84
2022-08-11T02:07:19.337Z,99757.50
2022-08-11T02:09:57.899Z,99766.59
2022-08-11T02:12:52.417Z,99767.66
2022-08-11T02:15:30.083Z,99767.03
2022-08-11T02:18:09.482Z,99762.94
2022-08-11T02:21:04.008Z,99764.59
2022-08-11T02:23:58.752Z,99775.13
2022-08-11T02:26:41.348Z,99775.34
2022-08-11T02:29:17.842Z,99775.13
2022-08-11T02:32:30.321Z,99781.94
2022-08-11T02:35:11.257Z,99788.81
2022-08-11T02:37:50.892Z,99790.06
2022-08-11T02:40:31.349Z,99790.06
2022-08-11T02:43:19.525Z,99789.84
2022-08-11T02:45:55.005Z,99789.47
2022-08-11T02:49:07.292Z,99789.06
2022-08-11T02:51:43.797Z,99793.16
2022-08-11T02:54:18.810Z,99801.44
2022-08-11T02:56:58.292Z,99801.44
2022-08-11T02:59:54.596Z,99798.91
2022-08-11T03:02:33.313Z,99798.91
2022-08-11T03:05:17.217Z,99801.59
2022-08-11T03:07:59.405Z,99806.19
2022-08-11T03:10:37.986Z,99807.66
2022-08-11T03:13:33.470Z,99813.25
2022-08-11T03:16:32.382Z,99814.47
2022-08-11T03:19:10.972Z,99816.53
2022-08-11T03:22:01.712Z,99817.75
2022-08-11T03:24:47.549Z,99818.38
2022-08-11T03:27:38.255Z,99812.56
2022-08-11T03:30:14.885Z,99826.00
2022-08-11T03:33:22.756Z,99822.09
2022-08-11T03:36:00.768Z,99826.44
2022-08-11T03:38:45.232Z,99831.81
2022-08-11T03:42:02.210Z,99833.25
2022-08-11T03:44:43.344Z,99819.41
2022-08-11T03:47:38.644Z,99818.78
2022-08-11T03:50:18.360Z,99813.63
2022-08-11T03:52:54.917Z,99822.53
2022-08-11T03:55:49.350Z,99821.47
2022-08-11T03:58:56.851Z,99818.16
2022-08-11T04:01:49.607Z,99815.47
2022-08-11T04:04:51.420Z,99825.81
2022-08-11T04:08:24.656Z,99825.38
2022-08-11T04:11:33.315Z,99831.63
2022-08-11T04:15:03.012Z,99834.94
2022-08-11T04:18:07.573Z,99836.19
2022-08-11T04:21:06.170Z,99844.88
2022-08-11T04:24:36.333Z,99836.19
2022-08-11T04:27:32.768Z,99840.75
2022-08-11T04:30:12.177Z,99840.38
2022-08-11T04:33:11.714Z,99832.69
2022-08-11T04:35:55.273Z,99834.78
2022-08-11T04:39:00.288Z,99832.09
2022-08-11T04:42:31.009Z,99831.63
2022-08-11T04:45:37.299Z,99837.47
2022-08-11T04:48:42.828Z,99832.09
2022-08-11T04:52:00.370Z,99822.97
2022-08-11T04:55:05.877Z,99845.31
2022-08-11T04:58:05.773Z,99838.06
2022-08-11T05:01:03.346Z,99833.72
2022-08-11T05:03:48.279Z,99827.69
2022-08-11T05:06:35.954Z,99821.47
2022-08-11T05:09:28.714Z,99824.78
2022-08-11T05:12:33.642Z,99823.31
2022-08-11T05:15:23.406Z,99824.97
2022-08-11T05:18:19.724Z,99840.69
2022-08-11T05:21:11.387Z,99850.00
2022-08-11T05:24:02.136Z,99844.41
2022-08-11T05:26:58.189Z,99828.47
2022-08-11T05:29:50.491Z,99868.84
2022-08-11T05:32:37.934Z,99846.69
2022-08-11T05:35:08.890Z,99849.19
2022-08-11T05:37:57.463Z,99844.00
2022-08-11T05:40:50.923Z,99838.84
2022-08-11T05:44:20.812Z,99851.88
2022-08-11T05:46:47.548Z,99846.47
2022-08-11T05:49:35.123Z,99834.88
2022-08-11T05:52:31.644Z,99841.88
2022-08-11T05:55:21.993Z,99849.75
2022-08-11T05:57:52.002Z,99855.97
2022-08-11T06:00:21.426Z,99857.19
2022-08-11T06:02:55.514Z,99856.56
2022-08-11T06:05:37.236Z,99858.78
2022-08-11T06:08:08.387Z,99850.72
2022-08-11T06:10:38.640Z,99850.09
2022-08-11T06:13:09.036Z,99855.84
2022-08-11T06:15:46.640Z,99854.00
2022-08-11T06:18:15.778Z,99859.16
2022-08-11T06:20:50.371Z,99853.56
2022-08-11T06:23:20.651Z,99851.72
2022-08-11T06:25:50.457Z,99847.34
2022-08-11T06:28:21.386Z,99846.31
2022-08-11T06:30:50.849Z,99848.56
2022-08-11T06:33:22.943Z,99855.00
2022-08-11T06:36:04.012Z,99852.09
2022-08-11T06:38:48.053Z,99859.09
2022-08-11T06:41:31.992Z,99858.50
2022-08-11T06:44:21.834Z,99859.91
2022-08-11T06:46:56.125Z,99861.81
2022-08-11T06:49:50.918Z,99867.78
2022-08-11T06:52:35.626Z,99865.09
2022-08-11T06:55:57.375Z,99863.22
2022-08-11T06:58:16.698Z,99876.47
2022-08-11T07:00:48.521Z,99867.34
2022-08-11T07:03:20.614Z,99878.13
2022-08-11T07:05:53.651Z,99870.88
2022-08-11T07:09:04.422Z,99881.81
2022-08-11T07:12:18.895Z,99870.22
2022-08-11T07:15:10.224Z,99871.88
2022-08-11T07:17:49.657Z,99875.97
2022-08-11T07:20:36.687Z,99880.09
2022-08-11T07:23:27.161Z,99874.13
2022-08-11T07:26:20.410Z,99867.69
2022-08-11T07:28:58.059Z,99874.13
2022-08-11T07:31:34.307Z,99874.13
2022-08-11T07:34:18.000Z,99873.06
2022-08-11T07:36:52.318Z,99866.84
2022-08-11T07:39:23.621Z,99868.53
2022-08-11T07:41:57.286Z,99873.91
2022-08-11T07:44:33.942Z,99868.09
2022-08-11T07:47:21.556Z,99868.31
2022-08-11T07:50:09.186Z,99855.63
2022-08-11T07:52:40.758Z,99858.97
2022-08-11T07:55:14.989Z,99861.00
2022-08-11T07:58:19.116Z,99854.56
2022-08-11T08:01:10.402Z,99858.53
2022-08-11T08:04:02.953Z,99866.38
2022-08-11T08:06:52.075Z,99853.06
2022-08-11T08:09:40.639Z,99867.59
2022-08-11T08:12:27.565Z,99860.56
2022-08-11T08:15:15.807Z,99848.72
2022-08-11T08:18:20.671Z,99857.03
2022-08-11T08:20:46.049Z,99850.38
2022-08-11T08:23:14.994Z,99843.56
2022-08-11T08:25:45.785Z,99847.66
2022-08-11T08:28:17.208Z,99844.53
2022-08-11T08:30:51.023Z,99846.63
2022-08-11T08:33:22.525Z,99844.53
2022-08-11T08:36:11.977Z,99839.16
2022-08-11T08:38:48.767Z,99843.50
2022-08-11T08:41:23.636Z,99836.47
2022-08-11T08:43:56.391Z,99842.47
2022-08-11T08:46:35.311Z,99838.94
2022-08-11T08:49:05.234Z,99852.78
2022-08-11T08:52:01.007Z,99848.00
2022-08-11T08:54:35.653Z,99850.47
2022-08-11T08:57:05.408Z,99845.84
2022-08-11T08:59:48.393Z,99840.25
2022-08-11T09:02:34.029Z,99844.22
2022-08-11T09:05:11.356Z,99835.72
2022-08-11T09:07:41.633Z,99840.09
2022-08-11T09:10:12.112Z,99828.03
2022-08-11T09:12:43.801Z,99835.06
2022-08-11T09:15:15.216Z,99834.84
2022-08-11T09:17:55.129Z,99831.09
2022-08-11T09:20:26.105Z,99831.09
2022-08-11T09:26:30.837Z,99835.47
2022-08-11T09:29:01.767Z,99834.63
2022-08-11T09:31:37.258Z,99825.91
2022-08-11T09:34:10.963Z,99835.63
2022-08-11T09:36:58.701Z,99842.09
2022-08-11T09:39:55.125Z,99830.66
2022-08-11T09:42:46.693Z,99827.38
2022-08-11T09:45:14.930Z,99830.28
2022-08-11T09:47:45.588Z,99839.47
2022-08-11T09:50:17.223Z,99839.84
2022-08-11T09:53:16.895Z,99829.31
2022-08-11T09:55:37.659Z,99830.13
2022-08-11T09:58:43.026Z,99840.09
2022-08-11T10:01:27.572Z,99835.50
2022-08-11T10:04:01.443Z,99832.16
2022-08-11T10:06:54.178Z,99840.69
2022-08-11T10:09:25.814Z,99830.13
2022-08-11T10:11:58.430Z,99829.91
2022-08-11T10:14:46.305Z,99836.47
2022-08-11T10:17:17.449Z,99839.19
2022-08-11T10:20:05.196Z,99823.78
2022-08-11T10:22:54.916Z,99832.50
2022-08-11T10:25:41.350Z,99821.81
2022-08-11T10:28:29.043Z,99834.09
2022-08-11T10:31:19.750Z,99837.16
2022-08-11T10:34:01.824Z,99831.94
2022-08-11T10:36:32.543Z,99828.41
2022-08-11T10:39:06.375Z,99819.13
2022-08-11T10:42:06.679Z,99829.31
2022-08-11T10:44:40.029Z,99830.50
2022-08-11T10:47:29.430Z,99820.94
2022-08-11T10:50:16.045Z,99813.91
2022-08-11T10:53:03.811Z,99823.63
2022-08-11T10:55:51.785Z,99830.28
2022-08-11T10:58:38.094Z,99859.09
2022-08-11T11:01:07.121Z,99821.72
2022-08-11T11:03:36.757Z,99841.72
2022-08-11T11:06:27.320Z,99838.75
2022-08-11T11:09:04.782Z,99820.31
2022-08-11T11:11:57.253Z,99817.84
2022-08-11T11:14:52.709Z,99847.72
2022-08-11T11:17:49.575Z,99826.75
2022-08-11T11:20:36.918Z,99827.59
2022-08-11T11:23:13.767Z,99824.84
2022-08-11T11:26:07.582Z,99826.72
2022-08-11T11:28:53.254Z,99820.94
2022-08-11T11:31:33.558Z,99819.28
2022-08-11T11:34:16.561Z,99824.69
2022-08-11T11:36:50.687Z,99824.25
2022-08-11T11:39:21.895Z,99823.41
2022-08-11T11:41:53.231Z,99815.53
2022-08-11T11:44:24.681Z,99825.69
2022-08-11T11:46:56.776Z,99828.59
2022-08-11T11:49:29.260Z,99827.09
2022-08-11T11:52:00.115Z,99819.69
2022-08-11T11:54:33.268Z,99822.53
2022-08-11T11:57:25.897Z,99817.81
2022-08-11T12:00:22.980Z,99815.50
2022-08-11T12:03:02.926Z,99811.38
2022-08-11T12:05:34.985Z,99835.19
2022-08-11T12:08:16.519Z,99810.84
2022-08-11T12:10:48.233Z,99810.03
2022-08-11T12:13:35.923Z,99814.59
2022-08-11T12:16:32.907Z,99807.56
2022-08-11T12:18:57.669Z,99823.97
2022-08-11T12:21:27.717Z,99809.44
2022-08-11T12:24:15.024Z,99823.00
2022-08-11T12:27:16.583Z,99821.84
2022-08-11T12:29:52.802Z,99808.38
2022-08-11T12:32:28.585Z,99828.69
2022-08-11T12:34:58.117Z,99811.25
2022-08-11T12:37:31.792Z,99817.22
2022-08-11T12:40:42.495Z,99802.53
2022-08-11T12:43:37.248Z,99805.84
2022-08-11T12:46:09.845Z,99810.63
2022-08-11T12:49:03.395Z,99799.63
2022-08-11T12:52:13.750Z,99800.28
2022-08-11T12:54:52.065Z,99823.13
2022-08-11T12:57:45.853Z,99812.88
2022-08-11T13:00:33.619Z,99796.56
2022-08-11T13:03:21.045Z,99812.28
2022-08-11T13:05:55.591Z,99828.44
2022-08-11T13:08:26.101Z,99800.47
2022-08-11T13:11:14.078Z,99798.78
2022-08-11T13:13:54.661Z,99792.38
2022-08-11T13:16:29.401Z,99794.00
2022-08-11T13:19:01.292Z,99811.69
2022-08-11T13:21:33.014Z,99782.63
2022-08-11T13:24:03.690Z,99786.81
2022-08-11T13:26:47.274Z,99798.78
2022-08-11T13:29:21.484Z,99798.78
2022-08-11T13:31:52.707Z,99797.16
2022-08-11T13:34:24.265Z,99795.66
2022-08-11T13:36:57.476Z,99803.72
2022-08-11T13:39:28.235Z,99791.09
2022-08-11T13:42:01.305Z,99792.59
2022-08-11T13:44:32.265Z,99802.31
2022-08-11T13:47:04.473Z,99791.75
2022-08-11T13:49:36.421Z,99791.94
2022-08-11T13:52:13.422Z,99808.25
2022-08-11T13:54:43.120Z,99793.78
2022-08-11T13:58:18.180Z,99790.88
2022-08-11T14:00:19.067Z,99802.63
2022-08-11T14:02:58.167Z,99791.00
2022-08-11T14:05:29.703Z,99786.22
2022-08-11T14:08:02.992Z,99791.97
2022-08-11T14:10:34.294Z,99784.72
2022-08-11T14:13:42.598Z,99769.16
2022-08-11T14:16:21.111Z,99769.59
2022-08-11T14:18:52.987Z,99791.06
2022-08-11T14:21:42.432Z,99801.50
2022-08-11T14:24:13.245Z,99777.81
2022-08-11T14:26:43.682Z,99775.63
2022-08-11T14:29:15.158Z,99771.84
2022-08-11T14:31:48.589Z,99760.00
2022-08-11T14:34:21.401Z,99760.00
2022-08-11T14:36:54.566Z,99772.41
2022-08-11T14:39:26.789Z,99782.41
2022-08-11T14:42:14.482Z,99813.09
2022-08-11T14:47:35.642Z,99793.91
2022-08-11T14:50:11.075Z,99787.50
2022-08-11T14:52:46.965Z,99791.63
2022-08-11T14:55:33.694Z,99791.63
2022-08-11T14:58:02.948Z,99778.34
2022-08-11T15:00:33.199Z,99787.78
2022-08-11T15:03:10.641Z,99776.00
2022-08-11T15:05:52.350Z,99761.06
2022-08-11T15:08:47.630Z,99765.94
2022-08-11T15:11:39.415Z,99761.13
2022-08-11T15:14:10.241Z,99761.56
2022-08-11T15:16:58.843Z,99767.44
2022-08-11T15:19:40.271Z,99772.56
2022-08-11T15:22:28.570Z,99769.88
2022-08-11T15:24:59.296Z,99772.13
2022-08-11T15:27:49.728Z,99784.59
2022-08-11T15:30:35.877Z,99770.25
2022-08-11T15:33:26.933Z,99768.03
2022-08-11T15:36:16.576Z,99764.25
2022-08-11T15:38:55.480Z,99765.09
2022-08-11T15:41:54.483Z,99758.41
2022-08-11T15:45:03.247Z,99758.28
2022-08-11T15:47:41.242Z,99750.34
2022-08-11T15:50:16.326Z,99766.97
2022-08-11T15:52:51.325Z,99760.53
2022-08-11T15:55:20.999Z,99765.38
2022-08-11T15:58:08.948Z,99779.09
2022-08-11T16:00:59.067Z,99779.78
2022-08-11T16:04:07.473Z,99785.38
2022-08-11T16:06:44.119Z,99786.22
2022-08-11T16:09:22.520Z,99794.88
2022-08-11T16:11:52.506Z,99787.19
2022-08-11T16:14:39.305Z,99805.09
2022-08-11T16:17:12.793Z,99820.22
2022-08-11T16:19:44.043Z,99812.34
2022-08-11T16:22:14.195Z,99814.59
2022-08-11T16:26:38.061Z,99818.13
2022-08-11T16:27:40.085Z,99821.84
2022-08-11T16:30:10.502Z,99821.84
2022-08-11T16:32:43.205Z,99835.81
2022-08-11T16:35:31.979Z,99825.59
2022-08-11T16:38:19.043Z,99825.25
2022-08-11T16:40:52.338Z,99842.44
2022-08-11T16:43:41.088Z,99839.97
2022-08-11T16:46:26.985Z,99858.84
2022-08-11T16:48:57.016Z,99870.88
2022-08-11T16:51:25.568Z,99889.13
2022-08-11T16:54:04.046Z,99909.06
2022-08-11T16:56:40.184Z,99933.31
2022-08-11T16:59:15.987Z,99936.47
2022-08-11T17:01:50.017Z,99972.56
2022-08-11T17:04:48.891Z,99977.97
2022-08-11T17:07:41.643Z,99968.47
2022-08-11T17:10:51.226Z,99926.22
2022-08-11T17:13:29.364Z,99897.56
2022-08-11T17:16:07.919Z,99841.16
2022-08-11T17:18:43.435Z,99849.88
2022-08-11T17:21:16.260Z,99819.59
2022-08-11T17:23:50.435Z,99817.19
2022-08-11T17:26:25.532Z,99817.19
2022-08-11T17:28:59.067Z,99829.00
2022-08-11T17:31:47.679Z,99829.63
2022-08-11T17:34:33.872Z,99820.94
2022-08-11T17:37:04.382Z,99814.72
2022-08-11T17:39:35.880Z,99813.91
2022-08-11T17:42:22.150Z,99822.56
2022-08-11T17:45:10.489Z,99822.22
2022-08-11T17:47:58.272Z,99840.84
2022-08-11T17:50:27.965Z,99857.03
2022-08-11T17:53:15.277Z,99864.28
2022-08-11T17:56:02.177Z,99870.50
2022-08-11T17:58:48.857Z,99876.09
2022-08-11T18:01:21.710Z,99869.25
2022-08-11T18:03:54.591Z,99873.63
2022-08-11T18:06:34.671Z,99865.31
2022-08-11T18:09:23.855Z,99866.97
2022-08-11T18:12:12.966Z,99865.91
2022-08-11T18:15:03.365Z,99894.50
2022-08-11T18:17:50.713Z,99895.16
2022-08-11T18:20:37.872Z,99919.19
2022-08-11T18:23:46.924Z,99913.59
2022-08-11T18:26:38.239Z,99920.84
2022-08-11T18:29:26.302Z,99947.78
2022-08-11T18:32:20.679Z,99961.69
2022-08-11T18:35:11.352Z,99974.78
2022-08-11T18:38:04.330Z,99991.34
2022-08-11T18:40:51.880Z,100005.06
2022-08-11T18:43:41.764Z,99995.78
2022-08-11T18:46:29.832Z,99974.66
2022-08-11T18:49:21.849Z,99966.97
2022-08-11T18:52:13.735Z,99943.53
2022-08-11T18:55:02.101Z,99959.69
2022-08-11T18:57:54.024Z,99962.38
2022-08-11T19:00:44.395Z,99963.44
2022-08-11T19:03:32.937Z,99973.59
2022-08-11T19:06:40.282Z,99964.94
2022-08-11T19:09:32.645Z,99937.97
2022-08-11T19:12:21.646Z,99931.75
2022-08-11T19:15:09.431Z,99919.13
2022-08-11T19:17:59.060Z,99936.09
2022-08-11T19:20:48.196Z,99954.53
2022-08-11T19:23:37.478Z,99951.03
2022-08-11T19:26:26.934Z,99965.50
2022-08-11T19:30:05.048Z,99967.41
2022-08-11T19:32:21.236Z,99969.88
2022-08-11T19:35:07.940Z,99964.94
2022-08-11T19:37:54.845Z,99959.75
2022-08-11T19:40:41.365Z,99953.31
2022-08-11T19:43:30.132Z,99948.53
2022-08-11T19:46:18.765Z,99936.72
2022-08-11T19:49:08.439Z,99937.97
2022-08-11T19:51:55.764Z,99942.31
2022-08-11T19:54:44.800Z,99947.09
2022-08-11T19:57:35.766Z,99943.38
2022-08-11T20:00:30.409Z,99946.66
2022-08-11T20:03:18.094Z,99937.97
2022-08-11T20:06:05.982Z,99940.88
2022-08-11T20:08:57.821Z,99923.88
2022-08-11T20:11:47.598Z,99921.81
2022-08-11T20:14:34.826Z,99905.03
2022-08-11T20:17:23.187Z,99886.16
2022-08-11T20:20:10.698Z,99877.03
2022-08-11T20:22:58.428Z,99884.09
2022-08-11T20:25:46.050Z,99885.72
2022-08-11T20:28:32.895Z,99871.41
2022-08-11T20:31:19.077Z,99876.59
2022-08-11T20:34:07.297Z,99865.22
2022-08-11T20:36:57.298Z,99856.31
2022-08-11T20:39:43.890Z,99850.91
2022-08-11T20:42:31.389Z,99845.53
2022-08-11T20:45:23.487Z,99844.69
2022-08-11T20:48:14.662Z,99842.25
2022-08-11T20:51:06.287Z,99837.66
2022-08-11T20:53:54.046Z,99839.78
2022-08-11T20:56:42.003Z,99840.78
2022-08-11T20:59:30.127Z,99824.03
2022-08-11T21:02:25.890Z,99820.28
2022-08-11T21:05:15.909Z,99818.03
2022-08-11T21:08:09.844Z,99814.75
2022-08-11T21:11:00.520Z,99796.91
2022-08-11T21:13:52.597Z,99799.63
2022-08-11T21:16:47.636Z,99796.34
2022-08-11T21:20:06.659Z,99794.66
2022-08-11T21:22:59.157Z,99787.63
2022-08-11T21:25:55.762Z,99798.41
2022-08-11T21:28:47.571Z,99785.16
2022-08-11T21:31:34.609Z,99780.22
2022-08-11T21:34:21.931Z,99777.31
2022-08-11T21:37:09.437Z,99776.50
2022-08-11T21:39:56.276Z,99771.13
2022-08-11T21:42:46.386Z,99772.97
2022-08-11T21:45:34.551Z,99777.31
2022-08-11T21:48:20.771Z,99782.69
2022-08-11T21:51:06.574Z,99764.88
2022-08-11T21:53:52.665Z,99767.59
2022-08-11T21:56:39.044Z,99764.88
2022-08-11T21:59:27.339Z,99773.19
2022-08-11T22:02:13.495Z,99790.19
2022-08-11T22:05:00.701Z,99769.66
2022-08-11T22:07:47.938Z,99770.50
2022-08-11T22:10:40.321Z,99761.59
2022-08-11T22:13:29.648Z,99766.97
2022-08-11T22:16:17.488Z,99765.09
2022-08-11T22:19:04.601Z,99773.81
2022-08-11T22:22:01.256Z,99764.88
2022-08-11T22:24:51.783Z,99768.63
2022-08-11T22:27:37.416Z,99757.88
2022-08-11T22:30:24.960Z,99771.91
2022-08-11T22:33:15.050Z,99775.66
2022-08-11T22:36:03.167Z,99782.09
2022-08-11T22:38:51.531Z,99791.81
2022-08-11T22:41:39.650Z,99799.91
2022-08-11T22:44:25.769Z,99795.56
2022-08-11T22:47:14.015Z,99803.44
2022-08-11T22:50:07.855Z,99797.22
2022-08-11T22:52:54.612Z,99786.44
2022-08-11T22:55:42.829Z,99783.97
2022-08-11T22:58:29.331Z,99784.19
2022-08-11T23:01:16.520Z,99785.25
2022-08-11T23:04:04.640Z,99785.25
2022-08-11T23:06:53.614Z,99794.38
2022-08-11T23:09:39.375Z,99795.63
2022-08-11T23:12:26.214Z,99800.56
2022-08-11T23:15:13.326Z,99806.78
2022-08-11T23:17:59.615Z,99810.75
2022-08-11T23:20:51.228Z,99818.00
2022-08-11T23:23:40.636Z,99815.91
2022-08-11T23:26:26.868Z,99815.09
2022-08-11T23:29:17.660Z,99816.94
2022-08-11T23:32:05.923Z,99803.47
2022-08-11T23:35:04.162Z,99812.63
2022-08-11T23:37:51.390Z,99818.84
2022-08-11T23:40:38.531Z,99823.38
2022-08-11T23:43:24.331Z,99816.34
2022-08-11T23:46:10.308Z,99813.66
2022-08-11T23:48:58.007Z,99820.28
2022-08-11T23:51:45.843Z,99822.78
2022-08-11T23:54:37.155Z,99825.94
2022-08-11T23:57:24.964Z,99831.31
